createdAt,value
2022-10-08T00:00:27.926Z,99.99
2022-10-08T00:01:27.975Z,99.99
2022-10-08T00:02:27.970Z,99.99
2022-10-08T00:03:27.997Z,99.99
2022-10-08T00:04:28.090Z,99.99
2022-10-08T00:05:28.034Z,99.99
2022-10-08T00:06:28.058Z,99.99
2022-10-08T00:07:28.078Z,99.99
2022-10-08T00:08:28.112Z,99.99
2022-10-08T00:09:28.122Z,99.99
2022-10-08T00:10:28.145Z,99.99
2022-10-08T00:11:28.166Z,99.99
2022-10-08T00:12:28.187Z,99.99
2022-10-08T00:13:28.211Z,99.99
2022-10-08T00:14:28.231Z,99.99
2022-10-08T00:15:28.252Z,99.99
2022-10-08T00:16:28.466Z,99.99
2022-10-08T00:17:28.297Z,99.99
2022-10-08T00:18:28.319Z,99.99
2022-10-08T00:19:28.344Z,99.99
2022-10-08T00:20:28.359Z,99.99
2022-10-08T00:21:28.386Z,99.99
2022-10-08T00:22:28.405Z,99.99
2022-10-08T00:23:28.426Z,99.99
2022-10-08T00:24:28.447Z,99.99
2022-10-08T00:25:28.471Z,99.99
2022-10-08T00:26:28.495Z,99.99
2022-10-08T00:27:28.518Z,99.99
2022-10-08T00:28:28.589Z,99.99
2022-10-08T00:29:28.561Z,99.99
2022-10-08T00:30:28.580Z,99.99
2022-10-08T00:31:28.652Z,99.99
2022-10-08T00:32:28.624Z,99.99
2022-10-08T00:33:28.647Z,99.99
2022-10-08T00:34:28.668Z,99.99
2022-10-08T00:35:28.691Z,99.99
2022-10-08T00:36:28.710Z,99.99
2022-10-08T00:37:28.734Z,99.99
2022-10-08T00:38:28.757Z,99.99
2022-10-08T00:39:28.777Z,99.99
2022-10-08T00:40:28.795Z,99.99
2022-10-08T00:41:28.822Z,99.99
2022-10-08T00:42:28.843Z,99.99
2022-10-08T00:43:28.866Z,99.99
2022-10-08T00:44:28.886Z,99.99
2022-10-08T00:45:28.993Z,99.99
2022-10-08T00:46:28.933Z,99.99
2022-10-08T00:47:28.953Z,99.99
2022-10-08T00:48:28.974Z,99.99
2022-10-08T00:49:28.999Z,99.99
2022-10-08T00:50:29.020Z,99.99
2022-10-08T00:51:29.040Z,99.99
2022-10-08T00:52:29.061Z,99.99
2022-10-08T00:53:29.082Z,99.99
2022-10-08T00:54:29.109Z,99.99
2022-10-08T00:55:29.128Z,99.99
2022-10-08T00:56:29.149Z,99.99
2022-10-08T00:57:29.171Z,99.99
2022-10-08T00:58:29.190Z,99.99
2022-10-08T00:59:29.216Z,99.99
2022-10-08T01:00:29.265Z,99.99
2022-10-08T01:01:29.259Z,99.99
2022-10-08T01:02:29.312Z,99.99
2022-10-08T01:03:29.302Z,99.99
2022-10-08T01:04:29.324Z,99.99
2022-10-08T01:05:29.348Z,99.99
2022-10-08T01:06:29.369Z,99.99
2022-10-08T01:07:29.390Z,99.99
2022-10-08T01:08:29.412Z,99.99
2022-10-08T01:09:29.441Z,99.99
2022-10-08T01:10:29.457Z,99.99
2022-10-08T01:11:29.480Z,99.99
2022-10-08T01:12:29.501Z,99.99
2022-10-08T01:13:29.526Z,99.99
2022-10-08T01:14:29.543Z,99.99
2022-10-08T01:15:29.565Z,99.99
2022-10-08T01:16:29.625Z,99.99
2022-10-08T01:17:29.612Z,99.99
2022-10-08T01:18:29.640Z,99.99
2022-10-08T01:19:29.657Z,99.99
2022-10-08T01:20:29.678Z,99.99
2022-10-08T01:21:29.698Z,99.99
2022-10-08T01:22:29.723Z,99.99
2022-10-08T01:23:29.745Z,99.99
2022-10-08T01:24:29.764Z,99.99
2022-10-08T01:25:29.786Z,99.99
2022-10-08T01:26:29.811Z,99.99
2022-10-08T01:27:29.832Z,99.99
2022-10-08T01:28:29.914Z,99.99
2022-10-08T01:29:29.876Z,99.99
2022-10-08T01:30:29.896Z,99.99
2022-10-08T01:31:29.927Z,99.99
2022-10-08T01:32:29.941Z,99.99
2022-10-08T01:33:29.962Z,99.99
2022-10-08T01:34:29.986Z,99.99
2022-10-08T01:35:30.009Z,99.99
2022-10-08T01:36:30.028Z,99.99
2022-10-08T01:37:30.054Z,99.99
2022-10-08T01:38:30.079Z,99.99
2022-10-08T01:39:30.095Z,99.99
2022-10-08T01:40:30.120Z,99.99
2022-10-08T01:41:30.142Z,99.99
2022-10-08T01:42:30.161Z,99.99
2022-10-08T01:43:30.185Z,99.99
2022-10-08T01:44:30.337Z,99.99
2022-10-08T01:45:30.287Z,99.99
2022-10-08T01:46:30.250Z,99.99
2022-10-08T01:47:30.271Z,99.99
2022-10-08T01:48:30.297Z,99.99
2022-10-08T01:49:30.315Z,99.99
2022-10-08T01:50:30.335Z,99.99
2022-10-08T01:51:30.358Z,99.99
2022-10-08T01:52:30.379Z,99.99
2022-10-08T01:53:30.406Z,99.99
2022-10-08T01:54:30.424Z,99.99
2022-10-08T01:55:30.451Z,99.99
2022-10-08T01:56:30.468Z,99.99
2022-10-08T01:57:30.491Z,99.99
2022-10-08T01:58:30.511Z,99.99
2022-10-08T01:59:30.536Z,99.99
2022-10-08T02:00:30.558Z,99.99
2022-10-08T02:01:30.598Z,99.99
2022-10-08T02:02:30.646Z,99.99
2022-10-08T02:03:30.625Z,99.99
2022-10-08T02:04:30.645Z,99.99
2022-10-08T02:05:30.669Z,99.99
2022-10-08T02:06:30.690Z,99.99
2022-10-08T02:07:30.713Z,99.99
2022-10-08T02:08:30.733Z,99.99
2022-10-08T02:09:30.768Z,99.99
2022-10-08T02:10:30.775Z,99.99
2022-10-08T02:11:30.809Z,99.99
2022-10-08T02:12:30.823Z,99.99
2022-10-08T02:13:30.846Z,99.99
2022-10-08T02:14:30.866Z,99.99
2022-10-08T02:15:30.885Z,99.99
2022-10-08T02:16:31.010Z,99.99
2022-10-08T02:17:30.933Z,99.99
2022-10-08T02:18:30.954Z,99.99
2022-10-08T02:19:30.979Z,99.99
2022-10-08T02:20:30.997Z,99.99
2022-10-08T02:21:31.021Z,99.99
2022-10-08T02:22:31.044Z,99.99
2022-10-08T02:23:31.067Z,99.99
2022-10-08T02:24:31.095Z,99.99
2022-10-08T02:25:31.113Z,99.99
2022-10-08T02:26:31.133Z,99.99
2022-10-08T02:27:31.154Z,99.99
2022-10-08T02:28:31.229Z,99.99
2022-10-08T02:29:31.200Z,99.99
2022-10-08T02:30:31.221Z,99.99
2022-10-08T02:31:31.317Z,99.99
2022-10-08T02:32:31.268Z,99.99
2022-10-08T02:33:31.288Z,99.99
2022-10-08T02:34:31.311Z,99.99
2022-10-08T02:35:31.333Z,99.99
2022-10-08T02:36:31.356Z,99.99
2022-10-08T02:37:31.376Z,99.99
2022-10-08T02:38:31.401Z,99.99
2022-10-08T02:39:31.424Z,99.99
2022-10-08T02:40:31.447Z,99.99
2022-10-08T02:41:31.468Z,99.99
2022-10-08T02:42:31.494Z,99.99
2022-10-08T02:43:31.516Z,99.99
2022-10-08T02:44:31.540Z,99.99
2022-10-08T02:45:31.623Z,99.99
2022-10-08T02:46:31.581Z,99.99
2022-10-08T02:47:31.604Z,99.99
2022-10-08T02:48:31.626Z,99.99
2022-10-08T02:49:31.649Z,99.99
2022-10-08T02:50:31.672Z,99.99
2022-10-08T02:51:31.696Z,99.99
2022-10-08T02:52:31.716Z,99.99
2022-10-08T02:53:31.740Z,99.99
2022-10-08T02:54:31.762Z,99.99
2022-10-08T02:55:31.785Z,99.99
2022-10-08T02:56:31.811Z,99.99
2022-10-08T02:57:31.830Z,99.99
2022-10-08T02:58:31.856Z,99.99
2022-10-08T02:59:31.878Z,99.99
2022-10-08T03:00:31.897Z,99.99
2022-10-08T03:01:32.000Z,99.99
2022-10-08T03:02:32.085Z,99.99
2022-10-08T03:03:31.968Z,99.99
2022-10-08T03:04:31.991Z,99.99
2022-10-08T03:05:32.043Z,99.99
2022-10-08T03:06:32.037Z,99.99
2022-10-08T03:07:32.058Z,99.99
2022-10-08T03:08:32.082Z,99.99
2022-10-08T03:09:32.106Z,99.99
2022-10-08T03:10:32.129Z,99.99
2022-10-08T03:11:32.152Z,99.99
2022-10-08T03:12:32.176Z,99.99
2022-10-08T03:13:32.195Z,99.99
2022-10-08T03:14:32.220Z,99.99
2022-10-08T03:15:32.242Z,99.99
2022-10-08T03:16:32.347Z,99.99
2022-10-08T03:17:32.287Z,99.99
2022-10-08T03:18:32.313Z,99.99
2022-10-08T03:19:32.334Z,99.99
2022-10-08T03:20:32.365Z,99.99
2022-10-08T03:21:32.391Z,99.99
2022-10-08T03:22:32.406Z,99.99
2022-10-08T03:23:32.429Z,99.99
2022-10-08T03:24:32.449Z,99.99
2022-10-08T03:25:32.472Z,99.99
2022-10-08T03:26:32.498Z,99.99
2022-10-08T03:27:32.517Z,99.99
2022-10-08T03:28:32.602Z,99.99
2022-10-08T03:29:32.564Z,99.99
2022-10-08T03:30:32.615Z,99.99
2022-10-08T03:31:32.609Z,99.99
2022-10-08T03:32:32.634Z,99.99
2022-10-08T03:33:32.655Z,99.99
2022-10-08T03:34:32.678Z,99.99
2022-10-08T03:35:32.704Z,99.99
2022-10-08T03:36:32.724Z,99.99
2022-10-08T03:37:32.749Z,99.99
2022-10-08T03:38:32.773Z,99.99
2022-10-08T03:39:32.794Z,99.99
2022-10-08T03:40:32.817Z,99.99
2022-10-08T03:41:32.839Z,99.99
2022-10-08T03:42:32.863Z,99.99
2022-10-08T03:43:32.889Z,99.99
2022-10-08T03:44:32.908Z,99.99
2022-10-08T03:45:32.930Z,99.99
2022-10-08T03:46:33.083Z,99.99
2022-10-08T03:47:32.998Z,99.99
2022-10-08T03:48:33.066Z,99.99
2022-10-08T03:49:33.019Z,99.99
2022-10-08T03:50:33.045Z,99.99
2022-10-08T03:51:33.095Z,99.99
2022-10-08T03:52:33.114Z,99.99
2022-10-08T03:53:33.112Z,99.99
2022-10-08T03:54:33.135Z,99.99
2022-10-08T03:55:33.156Z,99.99
2022-10-08T03:56:33.219Z,99.99
2022-10-08T03:57:33.229Z,99.99
2022-10-08T03:58:33.234Z,99.99
2022-10-08T03:59:33.275Z,99.99
2022-10-08T04:00:33.275Z,99.99
2022-10-08T04:01:33.349Z,99.99
2022-10-08T04:02:33.367Z,99.99
2022-10-08T04:03:33.346Z,99.99
2022-10-08T04:04:33.370Z,99.99
2022-10-08T04:05:33.392Z,99.99
2022-10-08T04:06:33.412Z,99.99
2022-10-08T04:07:33.437Z,99.99
2022-10-08T04:08:33.465Z,99.99
2022-10-08T04:09:33.481Z,99.99
2022-10-08T04:10:33.508Z,99.99
2022-10-08T04:11:33.525Z,99.99
2022-10-08T04:12:33.565Z,99.99
2022-10-08T04:13:33.572Z,99.99
2022-10-08T04:14:33.596Z,99.99
2022-10-08T04:15:33.689Z,99.99
2022-10-08T04:16:33.645Z,99.99
2022-10-08T04:17:33.664Z,99.99
2022-10-08T04:18:33.696Z,99.99
2022-10-08T04:19:33.712Z,99.99
2022-10-08T04:20:33.739Z,99.99
2022-10-08T04:21:33.761Z,99.99
2022-10-08T04:22:33.784Z,99.99
2022-10-08T04:23:33.807Z,99.99
2022-10-08T04:24:33.833Z,99.99
2022-10-08T04:25:33.849Z,99.99
2022-10-08T04:26:33.874Z,99.99
2022-10-08T04:27:33.900Z,99.99
2022-10-08T04:28:38.237Z,99.99
2022-10-08T04:29:33.942Z,99.99
2022-10-08T04:30:33.968Z,99.99
2022-10-08T04:31:34.033Z,99.99
2022-10-08T04:32:34.012Z,99.99
2022-10-08T04:33:34.039Z,99.99
2022-10-08T04:34:34.059Z,99.99
2022-10-08T04:35:34.090Z,99.99
2022-10-08T04:36:34.108Z,99.99
2022-10-08T04:37:34.129Z,99.99
2022-10-08T04:38:34.151Z,99.99
2022-10-08T04:39:34.172Z,99.99
2022-10-08T04:40:34.202Z,99.99
2022-10-08T04:41:34.220Z,99.99
2022-10-08T04:42:34.244Z,99.99
2022-10-08T04:43:34.266Z,99.99
2022-10-08T04:44:34.289Z,99.99
2022-10-08T04:45:34.316Z,99.99
2022-10-08T04:46:34.391Z,99.99
2022-10-08T04:47:34.356Z,99.99
2022-10-08T04:48:34.381Z,99.99
2022-10-08T04:49:34.409Z,99.99
2022-10-08T04:50:34.427Z,99.99
2022-10-08T04:51:34.448Z,99.99
2022-10-08T04:52:34.472Z,99.99
2022-10-08T04:53:34.495Z,99.99
2022-10-08T04:54:34.519Z,99.99
2022-10-08T04:55:34.544Z,99.99
2022-10-08T04:56:34.570Z,99.99
2022-10-08T04:57:34.588Z,99.99
2022-10-08T04:58:34.611Z,99.99
2022-10-08T04:59:34.633Z,99.99
2022-10-08T05:00:34.657Z,99.99
2022-10-08T05:01:34.724Z,99.99
2022-10-08T05:02:34.717Z,99.99
2022-10-08T05:03:34.728Z,99.99
2022-10-08T05:04:34.747Z,99.99
2022-10-08T05:05:34.777Z,99.99
2022-10-08T05:06:34.794Z,99.99
2022-10-08T05:07:34.814Z,99.99
2022-10-08T05:08:34.841Z,99.99
2022-10-08T05:09:34.863Z,99.99
2022-10-08T05:10:34.890Z,99.99
2022-10-08T05:11:34.914Z,99.99
2022-10-08T05:12:34.933Z,99.99
2022-10-08T05:13:34.954Z,99.99
2022-10-08T05:14:34.979Z,99.99
2022-10-08T05:15:35.060Z,99.99
2022-10-08T05:16:35.029Z,99.99
2022-10-08T05:17:35.045Z,99.99
2022-10-08T05:18:35.073Z,99.99
2022-10-08T05:19:35.098Z,99.99
2022-10-08T05:20:35.119Z,99.99
2022-10-08T05:21:35.140Z,99.99
2022-10-08T05:22:35.169Z,99.99
2022-10-08T05:23:35.188Z,99.99
2022-10-08T05:24:35.213Z,99.99
2022-10-08T05:25:35.230Z,99.99
2022-10-08T05:26:56.759Z,99.99
2022-10-08T05:27:35.283Z,99.99
2022-10-08T05:28:35.325Z,99.99
2022-10-08T05:29:35.325Z,99.99
2022-10-08T05:30:35.352Z,99.99
2022-10-08T05:31:35.425Z,99.99
2022-10-08T05:32:35.396Z,99.99
2022-10-08T05:33:35.415Z,99.99
2022-10-08T05:34:35.442Z,99.99
2022-10-08T05:35:35.462Z,99.99
2022-10-08T05:36:35.486Z,99.99
2022-10-08T05:37:35.511Z,99.99
2022-10-08T05:38:35.570Z,99.99
2022-10-08T05:39:35.568Z,99.99
2022-10-08T05:40:35.579Z,99.99
2022-10-08T05:41:35.603Z,99.99
2022-10-08T05:42:35.624Z,99.99
2022-10-08T05:43:35.647Z,99.99
2022-10-08T05:44:37.770Z,99.99
2022-10-08T05:45:35.699Z,99.99
2022-10-08T05:46:35.938Z,99.99
2022-10-08T05:47:35.741Z,99.99
2022-10-08T05:48:35.765Z,99.99
2022-10-08T05:49:35.811Z,99.99
2022-10-08T05:50:35.814Z,99.99
2022-10-08T05:51:35.830Z,99.99
2022-10-08T05:52:35.859Z,99.99
2022-10-08T05:53:35.875Z,99.99
2022-10-08T05:54:35.904Z,99.99
2022-10-08T05:55:35.928Z,99.99
2022-10-08T05:56:35.948Z,99.99
2022-10-08T05:57:35.971Z,99.99
2022-10-08T05:58:36.013Z,99.99
2022-10-08T05:59:36.018Z,99.99
2022-10-08T06:00:36.043Z,99.99
2022-10-08T06:01:36.061Z,99.99
2022-10-08T06:02:36.150Z,99.99
2022-10-08T06:03:36.131Z,99.99
2022-10-08T06:04:36.202Z,99.99
2022-10-08T06:05:36.156Z,99.99
2022-10-08T06:06:36.181Z,99.99
2022-10-08T06:07:36.209Z,99.99
2022-10-08T06:08:36.227Z,99.99
2022-10-08T06:09:36.253Z,99.99
2022-10-08T06:10:36.272Z,99.99
2022-10-08T06:11:36.299Z,99.99
2022-10-08T06:12:36.314Z,99.99
2022-10-08T06:13:36.339Z,99.99
2022-10-08T06:14:36.367Z,99.99
2022-10-08T06:15:36.424Z,99.99
2022-10-08T06:16:36.524Z,99.99
2022-10-08T06:17:36.430Z,99.99
2022-10-08T06:18:36.454Z,99.99
2022-10-08T06:19:36.480Z,99.99
2022-10-08T06:20:36.503Z,99.99
2022-10-08T06:21:36.527Z,99.99
2022-10-08T06:22:36.546Z,99.99
2022-10-08T06:23:36.573Z,99.99
2022-10-08T06:24:36.593Z,99.99
2022-10-08T06:25:36.617Z,99.99
2022-10-08T06:26:36.657Z,99.99
2022-10-08T06:27:36.670Z,99.99
2022-10-08T06:28:36.790Z,99.99
2022-10-08T06:29:36.709Z,99.99
2022-10-08T06:30:36.742Z,99.99
2022-10-08T06:31:36.931Z,99.99
2022-10-08T06:32:36.781Z,99.99
2022-10-08T06:33:36.808Z,99.99
2022-10-08T06:34:36.823Z,99.99
2022-10-08T06:35:36.881Z,99.99
2022-10-08T06:36:36.870Z,99.99
2022-10-08T06:37:36.897Z,99.99
2022-10-08T06:38:36.922Z,99.99
2022-10-08T06:39:36.942Z,99.99
2022-10-08T06:40:36.960Z,99.99
2022-10-08T06:41:36.988Z,99.99
2022-10-08T06:42:37.014Z,99.99
2022-10-08T06:43:37.036Z,99.99
2022-10-08T06:44:37.054Z,99.99
2022-10-08T06:45:37.102Z,99.99
2022-10-08T06:46:37.162Z,99.99
2022-10-08T06:47:37.128Z,99.99
2022-10-08T06:48:37.150Z,99.99
2022-10-08T06:49:37.167Z,99.99
2022-10-08T06:50:37.199Z,99.99
2022-10-08T06:51:37.222Z,99.99
2022-10-08T06:52:37.237Z,99.99
2022-10-08T06:53:37.274Z,99.99
2022-10-08T06:54:37.290Z,99.99
2022-10-08T06:55:37.309Z,99.99
2022-10-08T06:56:37.330Z,99.99
2022-10-08T06:57:37.352Z,99.99
2022-10-08T06:58:37.375Z,99.99
2022-10-08T06:59:37.405Z,99.99
2022-10-08T07:00:37.496Z,99.99
2022-10-08T07:01:37.592Z,99.99
2022-10-08T07:02:37.539Z,99.99
2022-10-08T07:03:37.509Z,99.99
2022-10-08T07:04:37.522Z,99.99
2022-10-08T07:05:37.542Z,99.99
2022-10-08T07:06:37.565Z,99.99
2022-10-08T07:07:37.589Z,99.99
2022-10-08T07:08:37.610Z,99.99
2022-10-08T07:09:37.634Z,99.99
2022-10-08T07:10:37.658Z,99.99
2022-10-08T07:11:37.676Z,99.99
2022-10-08T07:12:37.704Z,99.99
2022-10-08T07:13:37.732Z,99.99
2022-10-08T07:14:37.751Z,99.99
2022-10-08T07:15:37.773Z,99.99
2022-10-08T07:16:37.843Z,99.99
2022-10-08T07:17:37.814Z,99.99
2022-10-08T07:18:37.871Z,99.99
2022-10-08T07:19:37.867Z,99.99
2022-10-08T07:20:37.892Z,99.99
2022-10-08T07:21:37.912Z,99.99
2022-10-08T07:22:37.936Z,99.99
2022-10-08T07:23:37.960Z,99.99
2022-10-08T07:24:37.981Z,99.99
2022-10-08T07:25:38.003Z,99.99
2022-10-08T07:26:38.045Z,99.99
2022-10-08T07:27:42.765Z,99.99
2022-10-08T07:28:38.139Z,99.99
2022-10-08T07:29:38.098Z,99.99
2022-10-08T07:30:38.123Z,99.99
2022-10-08T07:31:38.189Z,99.99
2022-10-08T07:32:38.173Z,99.99
2022-10-08T07:33:38.217Z,99.99
2022-10-08T07:34:38.218Z,99.99
2022-10-08T07:35:38.242Z,99.99
2022-10-08T07:36:38.285Z,99.99
2022-10-08T07:37:38.284Z,99.99
2022-10-08T07:38:38.310Z,99.99
2022-10-08T07:39:38.337Z,99.99
2022-10-08T07:40:38.365Z,99.99
2022-10-08T07:41:38.381Z,99.99
2022-10-08T07:42:38.414Z,99.99
2022-10-08T07:43:38.426Z,99.99
2022-10-08T07:44:38.448Z,99.99
2022-10-08T07:45:38.487Z,99.99
2022-10-08T07:46:38.499Z,99.99
2022-10-08T07:47:38.522Z,99.99
2022-10-08T07:48:38.553Z,99.99
2022-10-08T07:49:38.571Z,99.99
2022-10-08T07:50:38.599Z,99.99
2022-10-08T07:51:38.619Z,99.99
2022-10-08T07:52:38.648Z,99.99
2022-10-08T07:53:38.670Z,99.99
2022-10-08T07:54:38.692Z,99.99
2022-10-08T07:55:38.717Z,99.99
2022-10-08T07:56:38.745Z,99.99
2022-10-08T07:57:38.766Z,99.99
2022-10-08T07:58:38.803Z,99.99
2022-10-08T07:59:38.815Z,99.99
2022-10-08T08:00:38.869Z,99.99
2022-10-08T08:01:38.863Z,99.99
2022-10-08T08:02:38.889Z,99.99
2022-10-08T08:03:38.910Z,99.99
2022-10-08T08:04:38.934Z,99.99
2022-10-08T08:05:38.960Z,99.99
2022-10-08T08:06:46.134Z,99.99
2022-10-08T08:08:43.476Z,99.99
2022-10-08T08:09:43.023Z,99.99
2022-10-08T08:11:47.040Z,99.99
2022-10-08T08:12:47.285Z,99.99
2022-10-08T08:14:51.546Z,99.99
2022-10-08T08:15:51.086Z,99.99
2022-10-08T08:17:55.102Z,99.99
2022-10-08T08:18:55.123Z,99.99
2022-10-08T08:20:59.615Z,99.99
2022-10-08T08:21:59.144Z,99.99
2022-10-08T08:23:52.284Z,99.99
2022-10-08T08:24:52.296Z,99.99
2022-10-08T08:26:57.833Z,99.99
2022-10-08T08:27:56.329Z,99.99
2022-10-08T08:30:00.745Z,99.99
2022-10-08T08:31:00.369Z,99.99
2022-10-08T08:33:04.856Z,99.99
2022-10-08T08:34:04.401Z,99.99
2022-10-08T08:36:08.432Z,99.99
2022-10-08T08:37:08.441Z,99.99
2022-10-08T08:39:12.936Z,99.99
2022-10-08T08:40:12.486Z,99.99
2022-10-08T08:42:05.436Z,99.99
2022-10-08T08:43:05.446Z,99.99
2022-10-08T08:45:22.737Z,99.99
2022-10-08T08:46:09.564Z,99.99
2022-10-08T08:48:13.514Z,99.99
2022-10-08T08:49:13.531Z,99.99
2022-10-08T08:51:18.028Z,99.99
2022-10-08T08:52:17.575Z,99.99
2022-10-08T08:54:21.586Z,99.99
2022-10-08T08:55:21.604Z,99.99
2022-10-08T08:57:27.595Z,99.99
2022-10-08T08:58:25.639Z,99.99
2022-10-08T09:00:29.659Z,99.48
2022-10-08T09:01:29.772Z,99.87
2022-10-08T09:03:34.161Z,99.48
2022-10-08T09:04:33.703Z,99.29
2022-10-08T09:06:37.735Z,99.19
2022-10-08T09:07:37.738Z,97.75
2022-10-08T09:09:42.268Z,97.95
2022-10-08T09:10:41.774Z,98.52
2022-10-08T09:12:34.725Z,99.29
2022-10-08T09:13:34.736Z,99.00
2022-10-08T09:15:39.239Z,99.10
2022-10-08T09:16:38.809Z,97.56
2022-10-08T09:18:42.792Z,97.75
2022-10-08T09:19:42.806Z,97.33
2022-10-08T09:21:47.304Z,94.35
2022-10-08T09:22:47.057Z,94.84
2022-10-08T09:24:50.869Z,95.12
2022-10-08T09:25:50.886Z,94.45
2022-10-08T09:27:55.442Z,94.26
2022-10-08T09:28:54.915Z,94.55
2022-10-08T09:30:48.115Z,94.26
2022-10-08T09:31:48.079Z,94.55
2022-10-08T09:33:52.571Z,93.69
2022-10-08T09:34:52.126Z,93.21
2022-10-08T09:36:56.160Z,93.30
2022-10-08T09:37:56.180Z,93.21
2022-10-08T09:40:02.182Z,92.54
2022-10-08T09:41:00.205Z,91.67
2022-10-08T09:43:04.232Z,92.35
2022-10-08T09:44:04.248Z,92.63
2022-10-08T09:46:08.775Z,93.02
2022-10-08T09:47:08.286Z,92.54
2022-10-08T09:49:12.297Z,91.58
2022-10-08T09:50:12.313Z,91.77
2022-10-08T09:52:05.794Z,92.15
2022-10-08T09:53:05.309Z,91.39
2022-10-08T09:54:58.453Z,92.92
2022-10-08T09:55:58.469Z,93.11
2022-10-08T09:58:04.466Z,90.81
2022-10-08T09:59:02.505Z,90.81
2022-10-08T10:01:06.567Z,89.57
2022-10-08T10:02:06.542Z,89.95
2022-10-08T10:04:11.087Z,88.32
2022-10-08T10:05:10.588Z,88.70
2022-10-08T10:07:14.608Z,88.70
2022-10-08T10:08:14.626Z,89.13
2022-10-08T10:10:19.172Z,88.37
2022-10-08T10:11:18.660Z,88.13
2022-10-08T10:13:22.675Z,87.08
2022-10-08T10:14:22.692Z,85.93
2022-10-08T10:16:27.215Z,85.64
2022-10-08T10:17:26.727Z,85.93
2022-10-08T10:19:30.744Z,85.64
2022-10-08T10:20:30.755Z,84.97
2022-10-08T10:22:24.240Z,85.83
2022-10-08T10:23:23.718Z,86.50
2022-10-08T10:25:27.742Z,86.74
2022-10-08T10:26:27.758Z,86.31
2022-10-08T10:28:32.284Z,85.35
2022-10-08T10:29:31.798Z,84.49
2022-10-08T10:31:35.801Z,85.54
2022-10-08T10:32:35.826Z,85.25
2022-10-08T10:34:40.314Z,85.16
2022-10-08T10:35:39.855Z,84.01
2022-10-08T10:37:43.868Z,85.45
2022-10-08T10:38:43.896Z,84.97
2022-10-08T10:40:48.384Z,85.45
2022-10-08T10:41:47.953Z,84.97
2022-10-08T10:43:51.968Z,86.08
2022-10-08T10:44:51.991Z,86.08
2022-10-08T10:46:56.488Z,85.50
2022-10-08T10:47:56.025Z,85.79
2022-10-08T10:50:00.040Z,85.94
2022-10-08T10:51:00.062Z,85.98
2022-10-08T10:52:00.090Z,85.98
2022-10-08T10:53:00.104Z,85.69
2022-10-08T10:54:00.134Z,85.50
2022-10-08T10:55:00.148Z,85.50
2022-10-08T10:56:00.178Z,85.69
2022-10-08T10:57:00.203Z,85.79
2022-10-08T10:58:00.227Z,85.25
2022-10-08T10:59:00.254Z,84.58
2022-10-08T11:00:00.281Z,83.34
2022-10-08T11:01:00.316Z,82.57
2022-10-08T11:02:00.368Z,81.52
2022-10-08T11:03:00.410Z,81.33
2022-10-08T11:04:00.380Z,80.76
2022-10-08T11:05:01.899Z,80.27
2022-10-08T11:06:00.430Z,80.18
2022-10-08T11:07:00.533Z,79.93
2022-10-08T11:08:00.483Z,79.07
2022-10-08T11:09:00.507Z,79.16
2022-10-08T11:10:00.531Z,79.39
2022-10-08T11:11:00.562Z,79.11
2022-10-08T11:12:00.580Z,78.05
2022-10-08T11:13:00.611Z,76.94
2022-10-08T11:14:00.635Z,76.27
2022-10-08T11:15:00.661Z,76.07
2022-10-08T11:16:00.724Z,75.98
2022-10-08T11:17:00.711Z,76.17
2022-10-08T11:18:00.734Z,75.98
2022-10-08T11:19:00.768Z,75.40
2022-10-08T11:20:00.791Z,76.07
2022-10-08T11:21:00.818Z,75.60
2022-10-08T11:22:00.848Z,75.79
2022-10-08T11:23:00.870Z,75.40
2022-10-08T11:24:00.900Z,75.40
2022-10-08T11:25:00.922Z,74.54
2022-10-08T11:26:22.247Z,74.31
2022-10-08T11:27:00.976Z,75.37
2022-10-08T11:28:01.095Z,74.41
2022-10-08T11:29:01.031Z,74.31
2022-10-08T11:30:01.058Z,75.27
2022-10-08T11:31:01.133Z,75.75
2022-10-08T11:32:01.107Z,76.04
2022-10-08T11:33:01.141Z,76.14
2022-10-08T11:34:01.163Z,77.38
2022-10-08T11:35:01.196Z,78.40
2022-10-08T11:36:01.217Z,78.88
2022-10-08T11:37:01.240Z,79.03
2022-10-08T11:38:01.267Z,80.56
2022-10-08T11:39:01.294Z,78.74
2022-10-08T11:40:01.329Z,79.85
2022-10-08T11:41:01.346Z,80.04
2022-10-08T11:42:01.371Z,80.43
2022-10-08T11:43:01.409Z,80.52
2022-10-08T11:44:01.418Z,79.75
2022-10-08T11:45:01.454Z,80.77
2022-10-08T11:46:01.515Z,81.63
2022-10-08T11:47:01.495Z,82.59
2022-10-08T11:48:01.520Z,83.64
2022-10-08T11:49:01.549Z,83.54
2022-10-08T11:50:01.575Z,83.59
2022-10-08T11:51:01.599Z,84.02
2022-10-08T11:52:01.628Z,84.12
2022-10-08T11:53:01.654Z,83.64
2022-10-08T11:54:01.679Z,83.93
2022-10-08T11:55:01.707Z,84.22
2022-10-08T11:56:01.725Z,84.31
2022-10-08T11:57:01.755Z,83.93
2022-10-08T11:58:09.491Z,82.49
2022-10-08T11:59:01.799Z,82.59
2022-10-08T12:00:07.776Z,83.36
2022-10-08T12:01:01.854Z,83.26
2022-10-08T12:02:01.923Z,84.02
2022-10-08T12:03:02.021Z,84.50
2022-10-08T12:04:01.930Z,84.88
2022-10-08T12:05:01.951Z,84.02
2022-10-08T12:06:01.978Z,83.64
2022-10-08T12:07:02.003Z,83.93
2022-10-08T12:08:02.024Z,83.64
2022-10-08T12:09:02.050Z,83.06
2022-10-08T12:10:02.080Z,83.06
2022-10-08T12:11:02.103Z,83.78
2022-10-08T12:12:02.124Z,82.73
2022-10-08T12:13:02.155Z,83.11
2022-10-08T12:14:02.178Z,83.30
2022-10-08T12:15:02.202Z,81.96
2022-10-08T12:16:02.296Z,80.90
2022-10-08T12:17:02.254Z,80.52
2022-10-08T12:18:02.275Z,81.13
2022-10-08T12:19:02.303Z,79.22
2022-10-08T12:20:02.327Z,78.61
2022-10-08T12:21:02.356Z,80.18
2022-10-08T12:22:02.377Z,80.08
2022-10-08T12:23:02.406Z,79.32
2022-10-08T12:24:02.429Z,79.13
2022-10-08T12:25:02.463Z,78.55
2022-10-08T12:26:02.474Z,78.55
2022-10-08T12:27:02.500Z,78.36
2022-10-08T12:28:02.566Z,79.13
2022-10-08T12:29:02.557Z,79.51
2022-10-08T12:30:02.583Z,79.03
2022-10-08T12:31:02.687Z,80.27
2022-10-08T12:32:02.631Z,80.18
2022-10-08T12:33:02.658Z,80.47
2022-10-08T12:34:02.680Z,80.56
2022-10-08T12:35:02.703Z,80.12
2022-10-08T12:36:02.733Z,80.12
2022-10-08T12:37:02.759Z,80.32
2022-10-08T12:38:02.780Z,79.64
2022-10-08T12:39:02.809Z,77.82
2022-10-08T12:40:02.842Z,78.40
2022-10-08T12:41:02.858Z,78.88
2022-10-08T12:42:02.877Z,79.16
2022-10-08T12:43:02.906Z,77.73
2022-10-08T12:44:02.930Z,77.67
2022-10-08T12:45:02.957Z,77.06
2022-10-08T12:46:02.987Z,77.44
2022-10-08T12:47:03.033Z,77.53
2022-10-08T12:48:03.032Z,77.19
2022-10-08T12:49:03.070Z,76.62
2022-10-08T12:50:03.091Z,76.32
2022-10-08T12:51:03.111Z,77.09
2022-10-08T12:52:03.151Z,75.56
2022-10-08T12:53:03.170Z,74.98
2022-10-08T12:54:03.197Z,75.37
2022-10-08T12:55:03.213Z,75.95
2022-10-08T12:56:03.239Z,74.22
2022-10-08T12:57:03.269Z,73.93
2022-10-08T12:58:03.293Z,74.41
2022-10-08T12:59:03.319Z,74.22
2022-10-08T13:00:03.342Z,72.39
2022-10-08T13:01:03.413Z,71.44
2022-10-08T13:02:03.425Z,71.53
2022-10-08T13:03:03.414Z,72.20
2022-10-08T13:04:03.442Z,72.68
2022-10-08T13:05:03.471Z,73.55
2022-10-08T13:06:03.498Z,74.31
2022-10-08T13:07:03.520Z,74.89
2022-10-08T13:08:03.549Z,74.31
2022-10-08T13:09:03.576Z,74.98
2022-10-08T13:10:03.598Z,75.37
2022-10-08T13:11:03.626Z,75.27
2022-10-08T13:12:04.002Z,74.31
2022-10-08T13:13:03.683Z,73.83
2022-10-08T13:14:03.735Z,73.74
2022-10-08T13:15:03.731Z,73.55
2022-10-08T13:16:03.826Z,73.83
2022-10-08T13:17:03.784Z,74.41
2022-10-08T13:18:03.808Z,74.79
2022-10-08T13:19:03.836Z,74.22
2022-10-08T13:20:03.859Z,73.65
2022-10-08T13:21:03.888Z,74.51
2022-10-08T13:22:03.916Z,73.65
2022-10-08T13:23:07.109Z,74.22
2022-10-08T13:24:03.964Z,73.26
2022-10-08T13:25:03.989Z,73.70
2022-10-08T13:26:04.023Z,72.94
2022-10-08T13:27:04.051Z,73.80
2022-10-08T13:28:04.112Z,74.08
2022-10-08T13:29:07.574Z,73.99
2022-10-08T13:30:04.127Z,74.85
2022-10-08T13:31:04.178Z,75.43
2022-10-08T13:32:04.172Z,76.19
2022-10-08T13:33:04.204Z,76.25
2022-10-08T13:34:04.240Z,76.00
2022-10-08T13:35:04.271Z,76.35
2022-10-08T13:36:04.302Z,76.73
2022-10-08T13:37:04.310Z,77.02
2022-10-08T13:38:04.328Z,76.92
2022-10-08T13:39:04.355Z,77.21
2022-10-08T13:40:04.378Z,77.31
2022-10-08T13:41:04.414Z,77.31
2022-10-08T13:42:04.435Z,77.02
2022-10-08T13:43:04.462Z,75.87
2022-10-08T13:44:04.488Z,76.06
2022-10-08T13:45:04.509Z,76.15
2022-10-08T13:46:04.538Z,75.87
2022-10-08T13:47:04.634Z,75.39
2022-10-08T13:48:04.587Z,75.10
2022-10-08T13:49:04.611Z,75.29